Leme Airport


Codes: SDLL/0
Name: Leme Airport
City: Leme
Country: Brazil
Elevation: 2024 ft.

Photos at Leme Airport


   Photos courtesy of SpottingLog. You can add your own sightings and photos by signing up for a free trial today.



No photos found.

Weather at Leme Airport


Time (UTC)DescriptionTempratureWindCloud coverageVisibilityPressureHumidity
13-Jun-2024 03:00Clear Sky15°C2 mph, NE0%10000m1019hPa46%
13-Jun-2024 06:00Clear Sky14°C4 mph, NE0%10000m1019hPa49%
13-Jun-2024 09:00Clear Sky13°C4 mph, NE0%10000m1020hPa54%
13-Jun-2024 12:00Clear Sky20°C7 mph, NE0%10000m1021hPa42%
13-Jun-2024 15:00Clear Sky27°C11 mph, N0%10000m1019hPa25%
13-Jun-2024 18:00Clear Sky29°C9 mph, NE0%10000m1015hPa20%
13-Jun-2024 21:00Clear Sky20°C4 mph, NE0%10000m1016hPa32%
14-Jun-2024 00:00Clear Sky16°C4 mph, NE0%10000m1019hPa45%
14-Jun-2024 03:00Clear Sky15°C2 mph, N1%10000m1019hPa50%
14-Jun-2024 06:00Clear Sky14°C4 mph, NE7%10000m1019hPa54%
14-Jun-2024 09:00Clear Sky13°C4 mph, N5%10000m1019hPa58%
14-Jun-2024 12:00Clear Sky20°C9 mph, NE2%10000m1021hPa41%
14-Jun-2024 15:00Clear Sky28°C13 mph, N0%10000m1019hPa28%
14-Jun-2024 18:00Clear Sky30°C11 mph, N0%10000m1015hPa22%
14-Jun-2024 21:00Clear Sky22°C4 mph, NE0%10000m1016hPa36%
15-Jun-2024 00:00Clear Sky18°C4 mph, NE0%10000m1019hPa55%
15-Jun-2024 03:00Clear Sky17°C4 mph, NE0%10000m1019hPa64%
15-Jun-2024 06:00Clear Sky16°C4 mph, NE0%10000m1020hPa70%
15-Jun-2024 09:00Clear Sky15°C4 mph, NE0%10000m1021hPa75%
15-Jun-2024 12:00Clear Sky22°C11 mph, NE0%10000m1023hPa50%
15-Jun-2024 15:00Clear Sky29°C11 mph, N0%10000m1020hPa32%
15-Jun-2024 18:00Clear Sky30°C7 mph, NE1%10000m1017hPa25%
15-Jun-2024 21:00Clear Sky22°C2 mph, NE4%10000m1017hPa39%
16-Jun-2024 00:00Clear Sky18°C2 mph, NE2%10000m1019hPa52%
16-Jun-2024 03:00Clear Sky17°C2 mph, N0%10000m1019hPa58%
16-Jun-2024 06:00Clear Sky16°C4 mph, NE1%10000m1019hPa64%
16-Jun-2024 09:00Broken Clouds15°C4 mph, NE60%10000m1019hPa67%
16-Jun-2024 12:00Broken Clouds22°C11 mph, N51%10000m1020hPa48%
16-Jun-2024 15:00Clear Sky29°C11 mph, N3%10000m1017hPa31%
16-Jun-2024 18:00Clear Sky30°C7 mph, N1%10000m1014hPa23%
16-Jun-2024 21:00Clear Sky22°C2 mph, NW0%10000m1014hPa37%
17-Jun-2024 00:00Clear Sky19°C2 mph, NE0%10000m1016hPa45%
17-Jun-2024 03:00Clear Sky18°C7 mph, N0%10000m1016hPa50%
17-Jun-2024 06:00Clear Sky17°C4 mph, N0%10000m1016hPa58%
17-Jun-2024 09:00Clear Sky15°C4 mph, NE0%10000m1016hPa66%
17-Jun-2024 12:00Clear Sky22°C9 mph, N2%10000m1017hPa46%
17-Jun-2024 15:00Clear Sky29°C9 mph, N1%10000m1015hPa20%
17-Jun-2024 18:00Clear Sky30°C7 mph, N1%10000m1011hPa16%
17-Jun-2024 21:00Clear Sky22°C2 mph, N1%10000m1012hPa27%
18-Jun-2024 00:00Clear Sky18°C2 mph, NE1%10000m1014hPa34%